createdAt,value
2022-11-24T00:00:53.018Z,3.90
2022-11-24T00:03:19.425Z,4.55
2022-11-24T00:05:45.754Z,4.20
2022-11-24T00:08:12.159Z,4.82
2022-11-24T00:10:38.380Z,4.55
2022-11-24T00:13:04.630Z,4.40
2022-11-24T00:15:30.841Z,4.45
2022-11-24T00:17:57.068Z,4.97
2022-11-24T00:20:23.341Z,4.63
2022-11-24T00:22:49.575Z,3.58
2022-11-24T00:25:15.927Z,4.90
2022-11-24T00:27:42.326Z,4.57
2022-11-24T00:30:09.806Z,4.13
2022-11-24T00:32:36.063Z,4.20
2022-11-24T00:35:02.351Z,3.88
2022-11-24T00:37:28.615Z,4.43
2022-11-24T00:39:54.919Z,3.70
2022-11-24T00:42:21.119Z,3.95
2022-11-24T00:44:47.319Z,4.03
2022-11-24T00:47:13.709Z,3.13
2022-11-24T00:49:39.978Z,4.20
2022-11-24T00:52:06.219Z,4.03
2022-11-24T00:54:32.736Z,3.42
2022-11-24T00:56:59.286Z,3.47
2022-11-24T00:59:25.542Z,3.53
2022-11-24T01:01:51.817Z,3.40
2022-11-24T01:04:18.092Z,3.40
2022-11-24T01:06:44.328Z,3.92
2022-11-24T01:09:11.369Z,3.55
2022-11-24T01:11:56.458Z,3.78
2022-11-24T01:14:23.590Z,3.08
2022-11-24T01:16:49.973Z,3.72
2022-11-24T01:19:16.286Z,4.15
2022-11-24T01:21:42.504Z,4.18
2022-11-24T01:24:09.380Z,3.90
2022-11-24T01:26:35.595Z,3.83
2022-11-24T01:29:01.818Z,3.95
2022-11-24T01:31:28.138Z,4.57
2022-11-24T01:33:54.418Z,3.47
2022-11-24T01:36:21.255Z,3.60
2022-11-24T01:38:47.680Z,3.63
2022-11-24T01:41:15.579Z,3.30
2022-11-24T01:43:42.718Z,3.88
2022-11-24T01:46:14.963Z,3.70
2022-11-24T01:48:43.717Z,3.85
2022-11-24T01:51:29.768Z,3.40
2022-11-24T01:54:00.672Z,3.42
2022-11-24T01:56:27.447Z,3.70
2022-11-24T01:58:55.713Z,3.15
2022-11-24T02:01:21.985Z,3.03
2022-11-24T02:03:49.011Z,3.25
2022-11-24T02:06:19.905Z,3.13
2022-11-24T02:08:52.974Z,3.22
2022-11-24T02:11:19.716Z,3.25
2022-11-24T02:13:46.173Z,3.47
2022-11-24T02:16:12.591Z,3.42
2022-11-24T02:18:39.475Z,4.18
2022-11-24T02:21:06.386Z,3.55
2022-11-24T02:23:43.244Z,3.33
2022-11-24T02:26:09.573Z,3.88
2022-11-24T02:28:36.322Z,3.30
2022-11-24T02:31:02.996Z,3.72
2022-11-24T02:33:29.541Z,3.33
2022-11-24T02:35:55.779Z,4.20
2022-11-24T02:38:32.271Z,3.45
2022-11-24T02:41:00.084Z,3.60
2022-11-24T02:43:28.738Z,2.88
2022-11-24T02:45:55.015Z,4.13
2022-11-24T02:48:21.226Z,3.28
2022-11-24T02:50:47.443Z,3.65
2022-11-24T02:53:13.665Z,3.65
2022-11-24T02:55:39.894Z,3.40
2022-11-24T02:58:06.080Z,3.35
2022-11-24T03:00:32.439Z,3.95
2022-11-24T03:02:58.741Z,3.53
2022-11-24T03:05:24.976Z,3.50
2022-11-24T03:07:51.190Z,3.60
2022-11-24T03:10:17.503Z,3.97
2022-11-24T03:12:43.748Z,3.63
2022-11-24T03:15:10.240Z,3.45
2022-11-24T03:17:36.516Z,3.45
2022-11-24T03:20:05.227Z,3.17
2022-11-24T03:22:31.806Z,3.38
2022-11-24T03:24:58.079Z,3.55
2022-11-24T03:27:24.328Z,3.50
2022-11-24T03:29:50.636Z,4.22
2022-11-24T03:32:16.838Z,4.38
2022-11-24T03:34:43.113Z,3.83
2022-11-24T03:37:09.341Z,4.72
2022-11-24T03:39:35.576Z,3.95
2022-11-24T03:42:01.786Z,3.92
2022-11-24T03:44:27.972Z,3.70
2022-11-24T03:46:54.230Z,3.53
2022-11-24T03:49:20.429Z,3.55
2022-11-24T03:51:46.641Z,3.95
2022-11-24T03:54:12.916Z,4.80
2022-11-24T03:56:39.161Z,4.57
2022-11-24T03:59:05.451Z,4.57
2022-11-24T04:01:31.833Z,3.80
2022-11-24T04:03:58.085Z,3.50
2022-11-24T04:06:24.402Z,4.18
2022-11-24T04:08:50.641Z,4.68
2022-11-24T04:11:35.332Z,3.40
2022-11-24T04:14:01.518Z,3.97
2022-11-24T04:16:27.779Z,4.15
2022-11-24T04:18:54.219Z,4.22
2022-11-24T04:21:20.616Z,3.65
2022-11-24T04:23:46.850Z,3.50
2022-11-24T04:26:13.505Z,3.13
2022-11-24T04:28:39.699Z,3.97
2022-11-24T04:31:06.067Z,5.03
2022-11-24T04:33:32.603Z,4.38
2022-11-24T04:35:58.800Z,4.53
2022-11-24T04:39:23.201Z,3.95
2022-11-24T04:41:11.264Z,4.18
2022-11-24T04:43:40.562Z,3.72
2022-11-24T04:46:09.039Z,4.32
2022-11-24T04:48:35.348Z,3.17
2022-11-24T04:51:04.397Z,4.40
2022-11-24T04:53:30.578Z,3.22
2022-11-24T04:55:56.769Z,4.05
2022-11-24T04:58:22.994Z,4.20
2022-11-24T05:00:49.223Z,4.18
2022-11-24T05:03:15.431Z,4.78
2022-11-24T05:05:41.651Z,5.03
2022-11-24T05:08:08.331Z,4.07
2022-11-24T05:10:37.591Z,4.13
2022-11-24T05:13:05.391Z,3.38
2022-11-24T05:15:31.977Z,4.13
2022-11-24T05:17:58.176Z,3.38
2022-11-24T05:20:24.951Z,3.45
2022-11-24T05:22:51.542Z,4.15
2022-11-24T05:25:17.782Z,3.70
2022-11-24T05:27:43.981Z,4.15
2022-11-24T05:30:10.795Z,3.83
2022-11-24T05:32:36.987Z,3.72
2022-11-24T05:35:04.442Z,4.35
2022-11-24T05:37:31.013Z,4.45
2022-11-24T05:39:57.231Z,3.72
2022-11-24T05:42:46.786Z,4.15
2022-11-24T05:45:15.703Z,4.15
2022-11-24T05:47:42.089Z,4.30
2022-11-24T05:50:09.572Z,3.88
2022-11-24T05:52:36.202Z,4.05
2022-11-24T05:55:02.457Z,4.10
2022-11-24T05:57:28.671Z,3.55
2022-11-24T05:59:54.915Z,5.40
2022-11-24T06:02:21.570Z,4.43
2022-11-24T06:04:47.903Z,4.45
2022-11-24T06:07:14.418Z,4.05
2022-11-24T06:09:41.224Z,3.78
2022-11-24T06:12:08.045Z,2.65
2022-11-24T06:14:34.878Z,2.70
2022-11-24T06:17:01.527Z,2.75
2022-11-24T06:19:28.866Z,2.88
2022-11-24T06:21:55.224Z,3.08
2022-11-24T06:24:21.414Z,2.80
2022-11-24T06:26:47.666Z,2.97
2022-11-24T06:29:13.922Z,2.45
2022-11-24T06:31:40.192Z,3.17
2022-11-24T06:34:07.363Z,2.72
2022-11-24T06:36:33.961Z,2.88
2022-11-24T06:39:03.839Z,2.95
2022-11-24T06:41:30.130Z,2.78
2022-11-24T06:43:56.341Z,2.47
2022-11-24T06:46:22.879Z,2.78
2022-11-24T06:48:52.788Z,2.47
2022-11-24T06:51:19.462Z,2.30
2022-11-24T06:53:45.666Z,2.63
2022-11-24T06:56:16.617Z,2.70
2022-11-24T06:58:44.365Z,2.20
2022-11-24T07:01:14.449Z,2.22
2022-11-24T07:03:40.687Z,1.95
2022-11-24T07:06:06.970Z,2.55
2022-11-24T07:08:33.240Z,1.65
2022-11-24T07:11:04.017Z,1.58
2022-11-24T07:13:30.397Z,1.80
2022-11-24T07:15:56.580Z,2.03
2022-11-24T07:18:22.938Z,1.40
2022-11-24T07:20:49.235Z,1.80
2022-11-24T07:23:15.519Z,1.55
2022-11-24T07:25:41.805Z,1.73
2022-11-24T07:28:08.669Z,2.10
2022-11-24T07:30:35.016Z,1.50
2022-11-24T07:33:01.807Z,1.88
2022-11-24T07:35:28.689Z,1.73
2022-11-24T07:37:55.661Z,1.13
2022-11-24T07:40:22.377Z,1.52
2022-11-24T07:42:48.658Z,1.48
2022-11-24T07:45:14.991Z,1.45
2022-11-24T07:47:41.401Z,1.58
2022-11-24T07:50:09.576Z,1.42
2022-11-24T07:52:36.407Z,1.50
2022-11-24T07:55:02.982Z,1.58
2022-11-24T07:57:29.250Z,1.70
2022-11-24T07:59:55.777Z,2.05
2022-11-24T08:02:22.044Z,1.88
2022-11-24T08:04:48.259Z,1.50
2022-11-24T08:07:14.499Z,1.73
2022-11-24T08:09:40.748Z,1.60
2022-11-24T08:12:07.059Z,1.50
2022-11-24T08:14:33.490Z,1.70
2022-11-24T08:17:00.089Z,2.15
2022-11-24T08:19:26.332Z,1.98
2022-11-24T08:21:52.519Z,2.15
2022-11-24T08:24:19.023Z,1.60
2022-11-24T08:26:45.305Z,2.55
2022-11-24T08:29:11.492Z,2.50
2022-11-24T08:31:38.247Z,2.05
2022-11-24T08:34:05.283Z,1.95
2022-11-24T08:36:31.902Z,2.40
2022-11-24T08:38:59.087Z,2.22
2022-11-24T08:41:25.770Z,2.03
2022-11-24T08:43:52.153Z,2.20
2022-11-24T08:46:18.958Z,2.25
2022-11-24T08:48:52.030Z,2.40
2022-11-24T08:51:19.781Z,2.17
2022-11-24T08:53:46.279Z,2.58
2022-11-24T08:56:13.012Z,2.83
2022-11-24T08:58:39.571Z,2.63
2022-11-24T09:01:10.599Z,3.53
2022-11-24T09:03:38.223Z,3.15
2022-11-24T09:06:05.115Z,2.92
2022-11-24T09:08:31.882Z,3.35
2022-11-24T09:11:17.065Z,3.10
2022-11-24T09:13:43.643Z,2.88
2022-11-24T09:16:10.947Z,3.13
2022-11-24T09:18:37.500Z,2.83
2022-11-24T09:21:08.001Z,2.88
2022-11-24T09:23:34.469Z,3.10
2022-11-24T09:26:07.791Z,2.97
2022-11-24T09:28:34.455Z,2.67
2022-11-24T09:31:04.483Z,4.18
2022-11-24T09:33:31.555Z,2.47
2022-11-24T09:35:58.091Z,3.00
2022-11-24T09:38:24.559Z,2.67
2022-11-24T09:40:51.563Z,2.90
2022-11-24T09:43:31.007Z,2.78
2022-11-24T09:46:06.029Z,3.15
2022-11-24T09:48:35.486Z,2.90
2022-11-24T09:51:03.407Z,3.25
2022-11-24T09:53:31.699Z,2.83
2022-11-24T09:56:04.686Z,3.22
2022-11-24T09:58:42.884Z,2.60
2022-11-24T10:01:16.230Z,3.30
2022-11-24T10:03:43.796Z,2.55
2022-11-24T10:06:18.954Z,3.03
2022-11-24T10:08:59.548Z,2.92
2022-11-24T10:11:34.659Z,3.35
2022-11-24T10:14:08.928Z,3.10
2022-11-24T10:16:59.033Z,3.10
2022-11-24T10:19:46.413Z,2.80
2022-11-24T10:22:22.583Z,2.67
2022-11-24T10:25:08.729Z,3.42
2022-11-24T10:27:46.061Z,3.05
2022-11-24T10:30:16.935Z,2.47
2022-11-24T10:32:45.806Z,2.70
2022-11-24T10:35:14.859Z,2.95
2022-11-24T10:37:44.561Z,2.70
2022-11-24T10:40:40.396Z,3.00
2022-11-24T10:43:00.346Z,2.50
2022-11-24T10:45:27.520Z,2.70
2022-11-24T10:47:53.773Z,3.38
2022-11-24T10:50:25.030Z,2.85
2022-11-24T10:52:56.348Z,2.75
2022-11-24T10:55:22.684Z,3.42
2022-11-24T10:57:48.928Z,2.33
2022-11-24T11:00:20.966Z,2.50
2022-11-24T11:02:51.259Z,2.75
2022-11-24T11:05:32.584Z,2.30
2022-11-24T11:08:16.649Z,2.30
2022-11-24T11:10:43.928Z,3.38
2022-11-24T11:13:29.396Z,4.32
2022-11-24T11:15:56.863Z,4.35
2022-11-24T11:18:26.900Z,16.13
2022-11-24T11:20:54.200Z,4.68
2022-11-24T11:23:28.236Z,3.70
2022-11-24T11:26:13.303Z,2.83
2022-11-24T11:28:39.505Z,2.85
2022-11-24T11:31:22.794Z,2.40
2022-11-24T11:34:05.457Z,2.58
2022-11-24T11:36:35.323Z,2.65
2022-11-24T11:39:03.497Z,2.70
2022-11-24T11:41:32.351Z,2.70
2022-11-24T11:44:11.085Z,2.22
2022-11-24T11:46:37.400Z,2.45
2022-11-24T11:49:03.808Z,2.28
2022-11-24T11:51:36.116Z,2.03
2022-11-24T11:54:09.218Z,2.67
2022-11-24T11:56:44.922Z,3.05
2022-11-24T11:59:25.825Z,2.50
2022-11-24T12:01:58.442Z,2.88
2022-11-24T12:04:43.290Z,2.45
2022-11-24T12:07:18.337Z,2.60
2022-11-24T12:09:50.730Z,2.42
2022-11-24T12:12:22.885Z,2.40
2022-11-24T12:15:11.161Z,2.30
2022-11-24T12:17:40.503Z,2.45
2022-11-24T12:20:23.893Z,2.33
2022-11-24T12:23:11.104Z,3.50
2022-11-24T12:25:40.558Z,2.72
2022-11-24T12:28:17.517Z,2.58
2022-11-24T12:30:55.781Z,2.50
2022-11-24T12:33:31.287Z,2.17
2022-11-24T12:36:13.687Z,2.58
2022-11-24T12:38:39.889Z,2.67
2022-11-24T12:41:43.699Z,2.30
2022-11-24T12:44:15.152Z,2.42
2022-11-24T12:49:13.554Z,2.47
2022-11-24T12:51:41.321Z,2.25
2022-11-24T12:54:12.445Z,2.85
2022-11-24T12:56:53.518Z,2.65
2022-11-24T12:59:25.809Z,2.72
2022-11-24T13:01:52.069Z,2.20
2022-11-24T13:04:37.476Z,2.40
2022-11-24T13:07:11.298Z,2.70
2022-11-24T13:09:38.070Z,2.70
2022-11-24T13:12:12.379Z,2.72
2022-11-24T13:14:39.050Z,2.67
2022-11-24T13:17:33.754Z,2.45
2022-11-24T13:20:18.518Z,2.70
2022-11-24T13:22:58.735Z,2.17
2022-11-24T13:25:26.192Z,2.97
2022-11-24T13:27:53.137Z,2.80
2022-11-24T13:30:34.497Z,2.35
2022-11-24T13:33:03.849Z,2.60
2022-11-24T13:35:30.403Z,2.40
2022-11-24T13:37:56.725Z,2.50
2022-11-24T13:40:23.069Z,2.28
2022-11-24T13:43:01.140Z,2.90
2022-11-24T13:45:39.939Z,2.60
2022-11-24T13:48:18.461Z,2.75
2022-11-24T13:50:50.671Z,2.40
2022-11-24T13:53:35.690Z,2.47
2022-11-24T13:56:14.126Z,2.50
2022-11-24T13:58:41.930Z,2.70
2022-11-24T14:01:22.433Z,2.33
2022-11-24T14:04:28.515Z,2.10
2022-11-24T14:06:53.099Z,2.08
2022-11-24T14:09:25.086Z,2.00
2022-11-24T14:11:57.397Z,2.15
2022-11-24T14:14:23.831Z,2.50
2022-11-24T14:17:05.525Z,2.13
2022-11-24T14:21:58.641Z,2.38
2022-11-24T14:24:26.678Z,2.30
2022-11-24T14:26:52.886Z,2.85
2022-11-24T14:29:23.237Z,2.42
2022-11-24T14:31:53.538Z,2.17
2022-11-24T14:34:23.493Z,2.67
2022-11-24T14:36:50.774Z,2.38
2022-11-24T14:39:18.615Z,2.50
2022-11-24T14:42:03.799Z,2.55
2022-11-24T14:44:47.889Z,2.95
2022-11-24T14:47:25.725Z,2.65
2022-11-24T14:49:56.246Z,2.50
2022-11-24T14:52:23.645Z,2.17
2022-11-24T14:54:57.015Z,2.72
2022-11-24T14:57:25.474Z,2.55
2022-11-24T15:00:10.743Z,2.83
2022-11-24T15:02:46.084Z,3.35
2022-11-24T15:05:12.292Z,2.40
2022-11-24T15:07:39.587Z,3.22
2022-11-24T15:10:06.871Z,2.83
2022-11-24T15:12:36.283Z,3.38
2022-11-24T15:15:22.803Z,3.08
2022-11-24T15:17:52.023Z,3.28
2022-11-24T15:20:28.263Z,2.53
2022-11-24T15:23:12.365Z,2.75
2022-11-24T15:25:39.083Z,3.15
2022-11-24T15:28:05.294Z,3.58
2022-11-24T15:30:33.782Z,3.00
2022-11-24T15:33:00.041Z,2.80
2022-11-24T15:35:28.496Z,3.13
2022-11-24T15:37:54.686Z,3.63
2022-11-24T15:40:21.059Z,2.55
2022-11-24T15:42:52.154Z,3.13
2022-11-24T15:45:18.870Z,2.88
2022-11-24T15:47:45.167Z,3.22
2022-11-24T15:50:11.590Z,2.83
2022-11-24T15:52:37.886Z,3.60
2022-11-24T15:55:04.666Z,4.03
2022-11-24T15:57:32.636Z,4.45
2022-11-24T15:59:58.824Z,3.65
2022-11-24T16:02:25.333Z,3.65
2022-11-24T16:04:51.845Z,3.30
2022-11-24T16:07:18.127Z,3.42
2022-11-24T16:09:44.375Z,3.45
2022-11-24T16:12:10.713Z,3.70
2022-11-24T16:14:37.208Z,3.42
2022-11-24T16:17:03.769Z,3.55
2022-11-24T16:19:29.955Z,3.05
2022-11-24T16:21:56.193Z,3.17
2022-11-24T16:24:22.418Z,3.47
2022-11-24T16:26:48.644Z,3.33
2022-11-24T16:29:14.886Z,3.33
2022-11-24T16:31:43.296Z,2.90
2022-11-24T16:34:09.582Z,3.45
2022-11-24T16:36:35.849Z,4.05
2022-11-24T16:39:02.050Z,3.13
2022-11-24T16:41:28.255Z,3.30
2022-11-24T16:43:54.541Z,3.58
2022-11-24T16:46:21.508Z,3.42
2022-11-24T16:48:48.780Z,3.47
2022-11-24T16:51:15.572Z,3.30
2022-11-24T16:53:42.028Z,3.40
2022-11-24T16:56:08.399Z,3.80
2022-11-24T16:58:36.888Z,2.90
2022-11-24T17:01:21.703Z,3.33
2022-11-24T17:03:48.090Z,3.40
2022-11-24T17:06:18.402Z,3.42
2022-11-24T17:08:45.503Z,3.03
2022-11-24T17:11:16.450Z,3.47
2022-11-24T17:13:43.133Z,3.80
2022-11-24T17:16:10.408Z,3.70
2022-11-24T17:18:37.167Z,3.50
2022-11-24T17:21:09.139Z,3.30
2022-11-24T17:23:36.393Z,3.85
2022-11-24T17:26:03.117Z,4.07
2022-11-24T17:28:29.358Z,3.33
2022-11-24T17:30:55.616Z,5.82
2022-11-24T17:33:22.007Z,6.63
2022-11-24T17:35:48.194Z,6.75
2022-11-24T17:38:14.681Z,7.53
2022-11-24T17:40:45.646Z,7.88
2022-11-24T17:43:11.833Z,6.45
2022-11-24T17:45:38.141Z,5.22
2022-11-24T17:48:04.516Z,4.95
2022-11-24T17:50:30.689Z,4.35
2022-11-24T17:52:56.945Z,4.32
2022-11-24T17:55:23.117Z,4.32
2022-11-24T17:57:49.910Z,3.90
2022-11-24T18:00:16.483Z,3.85
2022-11-24T18:02:42.732Z,4.43
2022-11-24T18:05:09.033Z,3.72
2022-11-24T18:07:36.449Z,3.75
2022-11-24T18:10:03.160Z,3.80
2022-11-24T18:12:29.366Z,3.75
2022-11-24T18:14:55.643Z,3.63
2022-11-24T18:17:21.830Z,4.35
2022-11-24T18:19:48.023Z,3.70
2022-11-24T18:22:14.345Z,4.25
2022-11-24T18:24:40.741Z,4.00
2022-11-24T18:27:07.202Z,22.23
2022-11-24T18:29:33.399Z,4.75
2022-11-24T18:32:00.143Z,4.13
2022-11-24T18:34:26.490Z,3.55
2022-11-24T18:36:52.999Z,4.63
2022-11-24T18:39:19.304Z,3.80
2022-11-24T18:41:46.433Z,4.63
2022-11-24T18:44:12.906Z,4.35
2022-11-24T18:46:39.282Z,4.28
2022-11-24T18:49:06.792Z,4.90
2022-11-24T18:51:33.181Z,5.00
2022-11-24T18:53:59.874Z,4.47
2022-11-24T18:56:26.492Z,4.82
2022-11-24T18:58:53.467Z,5.32
2022-11-24T19:01:21.047Z,5.22
2022-11-24T19:03:49.428Z,4.68
2022-11-24T19:06:17.292Z,3.88
2022-11-24T19:08:43.592Z,4.25
2022-11-24T19:11:15.985Z,3.95
2022-11-24T19:13:42.201Z,4.38
2022-11-24T19:16:11.773Z,4.00
2022-11-24T19:18:38.359Z,3.90
2022-11-24T19:21:04.925Z,3.90
2022-11-24T19:23:31.137Z,3.75
2022-11-24T19:26:01.010Z,4.43
2022-11-24T19:28:27.274Z,4.03
2022-11-24T19:30:53.480Z,5.15
2022-11-24T19:33:21.380Z,4.55
2022-11-24T19:35:47.571Z,4.47
2022-11-24T19:38:15.282Z,5.30
2022-11-24T19:40:41.571Z,5.07
2022-11-24T19:43:07.807Z,5.30
2022-11-24T19:45:34.049Z,5.85
2022-11-24T19:48:00.336Z,5.53
2022-11-24T19:50:26.638Z,5.55
2022-11-24T19:52:52.955Z,5.68
2022-11-24T19:55:19.192Z,5.50
2022-11-24T19:57:45.409Z,5.85
2022-11-24T20:00:11.963Z,5.88
2022-11-24T20:02:38.221Z,5.45
2022-11-24T20:05:04.537Z,5.03
2022-11-24T20:07:30.768Z,4.75
2022-11-24T20:09:57.095Z,4.60
2022-11-24T20:12:23.405Z,6.13
2022-11-24T20:14:49.576Z,5.72
2022-11-24T20:17:15.844Z,4.38
2022-11-24T20:19:42.167Z,5.13
2022-11-24T20:22:08.397Z,6.10
2022-11-24T20:24:34.981Z,4.97
2022-11-24T20:27:01.968Z,5.72
2022-11-24T20:29:33.698Z,5.45
2022-11-24T20:32:00.031Z,5.30
2022-11-24T20:34:27.456Z,5.72
2022-11-24T20:36:53.745Z,5.07
2022-11-24T20:39:21.564Z,5.38
2022-11-24T20:41:47.805Z,6.03
2022-11-24T20:44:15.700Z,5.32
2022-11-24T20:46:42.817Z,5.03
2022-11-24T20:49:10.846Z,5.97
2022-11-24T20:51:38.941Z,5.40
2022-11-24T20:54:06.566Z,5.88
2022-11-24T20:56:34.903Z,5.30
2022-11-24T20:59:01.555Z,5.70
2022-11-24T21:01:34.595Z,5.78
2022-11-24T21:04:01.468Z,6.03
2022-11-24T21:06:28.357Z,6.25
2022-11-24T21:08:58.959Z,5.63
2022-11-24T21:11:28.373Z,6.13
2022-11-24T21:13:54.606Z,5.78
2022-11-24T21:16:20.865Z,5.75
2022-11-24T21:18:47.966Z,5.72
2022-11-24T21:21:14.525Z,6.00
2022-11-24T21:23:40.725Z,5.53
2022-11-24T21:26:11.695Z,5.72
2022-11-24T21:28:39.647Z,5.57
2022-11-24T21:31:06.921Z,5.63
2022-11-24T21:33:33.538Z,6.10
2022-11-24T21:36:03.586Z,5.97
2022-11-24T21:38:29.931Z,5.15
2022-11-24T21:41:03.374Z,5.78
2022-11-24T21:43:30.025Z,5.70
2022-11-24T21:46:03.024Z,5.43
2022-11-24T21:48:29.656Z,5.45
2022-11-24T21:50:57.803Z,6.22
2022-11-24T21:53:24.096Z,6.40
2022-11-24T21:55:54.268Z,5.80
2022-11-24T21:58:20.480Z,6.10
2022-11-24T22:00:46.739Z,5.90
2022-11-24T22:03:12.994Z,6.05
2022-11-24T22:05:39.212Z,6.20
2022-11-24T22:08:05.462Z,5.80
2022-11-24T22:10:31.683Z,6.72
2022-11-24T22:12:57.866Z,6.32
2022-11-24T22:15:24.100Z,11.18
2022-11-24T22:17:50.313Z,6.78
2022-11-24T22:20:16.633Z,5.80
2022-11-24T22:22:42.877Z,6.22
2022-11-24T22:25:09.184Z,7.20
2022-11-24T22:27:35.432Z,6.45
2022-11-24T22:30:02.521Z,5.57
2022-11-24T22:32:28.711Z,6.07
2022-11-24T22:34:54.922Z,5.50
2022-11-24T22:37:21.125Z,6.03
2022-11-24T22:39:47.342Z,5.32
2022-11-24T22:42:13.882Z,5.90
2022-11-24T22:44:40.176Z,5.82
2022-11-24T22:47:06.394Z,5.38
2022-11-24T22:49:32.644Z,5.75
2022-11-24T22:51:58.840Z,5.63
2022-11-24T22:54:25.120Z,5.00
2022-11-24T22:56:51.367Z,4.85
2022-11-24T22:59:17.575Z,5.10
2022-11-24T23:01:43.994Z,5.50
2022-11-24T23:04:10.227Z,4.95
2022-11-24T23:06:36.484Z,4.68
2022-11-24T23:09:03.482Z,5.15
2022-11-24T23:11:35.124Z,4.55
2022-11-24T23:14:03.915Z,5.18
2022-11-24T23:16:30.284Z,4.78
2022-11-24T23:18:56.521Z,4.22
2022-11-24T23:21:23.682Z,4.18
2022-11-24T23:23:50.449Z,4.95
2022-11-24T23:26:18.243Z,4.13
2022-11-24T23:28:44.473Z,4.50
2022-11-24T23:31:12.098Z,3.95
2022-11-24T23:33:38.982Z,3.95
2022-11-24T23:36:06.477Z,3.90
2022-11-24T23:38:32.933Z,5.10
2022-11-24T23:41:00.134Z,4.70
2022-11-24T23:43:26.450Z,5.50
2022-11-24T23:45:53.331Z,4.88
2022-11-24T23:48:19.601Z,4.43
2022-11-24T23:50:45.816Z,4.40
2022-11-24T23:53:12.046Z,4.80
2022-11-24T23:55:38.240Z,4.80
2022-11-24T23:58:05.172Z,4.93
